createdAt,value
2022-08-09T00:01:25.759Z,54.16
2022-08-09T00:04:06.251Z,54.99
2022-08-09T00:06:23.052Z,55.52
2022-08-09T00:08:44.803Z,55.70
2022-08-09T00:11:25.173Z,55.94
2022-08-09T00:13:38.449Z,57.08
2022-08-09T00:16:03.951Z,58.21
2022-08-09T00:18:30.344Z,58.65
2022-08-09T00:20:56.742Z,59.36
2022-08-09T00:23:58.233Z,59.97
2022-08-09T00:25:51.777Z,60.64
2022-08-09T00:28:16.013Z,61.38
2022-08-09T00:30:42.382Z,62.16
2022-08-09T00:33:08.772Z,62.10
2022-08-09T00:35:43.297Z,62.05
2022-08-09T00:38:01.539Z,62.22
2022-08-09T00:40:31.081Z,62.05
2022-08-09T00:44:12.957Z,61.98
2022-08-09T00:45:20.989Z,62.14
2022-08-09T00:47:47.422Z,61.50
2022-08-09T00:50:14.852Z,61.07
2022-08-09T00:52:40.220Z,61.23
2022-08-09T00:55:06.579Z,61.87
2022-08-09T00:57:34.411Z,61.43
2022-08-09T00:59:59.528Z,61.77
2022-08-09T01:02:25.904Z,61.95
2022-08-09T01:04:52.290Z,61.95
2022-08-09T01:07:18.674Z,62.63
2022-08-09T01:09:46.891Z,63.11
2022-08-09T01:12:12.675Z,63.37
2022-08-09T01:14:37.782Z,63.60
2022-08-09T01:17:04.162Z,63.81
2022-08-09T01:19:42.891Z,63.86
2022-08-09T01:21:56.912Z,64.22
2022-08-09T01:24:23.335Z,63.91
2022-08-09T01:26:53.616Z,63.36
2022-08-09T01:29:16.075Z,62.03
2022-08-09T01:32:30.680Z,62.38
2022-08-09T01:34:09.058Z,61.23
2022-08-09T01:36:35.334Z,60.63
2022-08-09T01:39:01.852Z,59.57
2022-08-09T01:41:28.077Z,59.52
2022-08-09T01:43:54.494Z,59.46
2022-08-09T01:46:23.981Z,58.91
2022-08-09T01:48:47.221Z,58.59
2022-08-09T01:51:13.689Z,58.98
2022-08-09T01:53:41.664Z,58.62
2022-08-09T01:56:06.413Z,58.94
2022-08-09T01:58:32.810Z,58.78
2022-08-09T02:00:59.210Z,58.54
2022-08-09T02:03:25.540Z,58.23
2022-08-09T02:05:53.688Z,57.97
2022-08-09T02:08:35.124Z,57.53
2022-08-09T02:10:51.124Z,57.30
2022-08-09T02:13:11.180Z,58.21
2022-08-09T02:15:49.403Z,59.06
2022-08-09T02:18:10.473Z,59.63
2022-08-09T02:20:32.876Z,60.19
2022-08-09T02:22:56.807Z,60.50
2022-08-09T02:25:23.243Z,60.86
2022-08-09T02:28:00.388Z,61.34
2022-08-09T02:30:15.985Z,61.47
2022-08-09T02:32:42.366Z,62.15
2022-08-09T02:35:17.287Z,62.80
2022-08-09T02:37:36.660Z,63.36
2022-08-09T02:40:03.054Z,64.35
2022-08-09T02:42:27.848Z,64.77
2022-08-09T02:44:54.238Z,64.72
2022-08-09T02:47:20.613Z,65.07
2022-08-09T02:49:46.973Z,65.28
2022-08-09T02:52:13.354Z,65.54
2022-08-09T02:54:54.687Z,65.50
2022-08-09T02:57:13.954Z,65.52
2022-08-09T02:59:36.744Z,65.48
2022-08-09T03:02:06.088Z,64.62
2022-08-09T03:04:28.782Z,63.99
2022-08-09T03:06:51.587Z,64.21
2022-08-09T03:09:18.009Z,64.33
2022-08-09T03:12:05.792Z,64.58
2022-08-09T03:14:10.782Z,64.34
2022-08-09T03:16:41.783Z,64.76
2022-08-09T03:19:03.531Z,64.96
2022-08-09T03:21:39.599Z,65.48
2022-08-09T03:24:04.003Z,65.52
2022-08-09T03:26:32.042Z,65.38
2022-08-09T03:28:49.167Z,65.77
2022-08-09T03:31:21.354Z,66.17
2022-08-09T03:33:53.599Z,66.37
2022-08-09T03:36:16.187Z,66.37
2022-08-09T03:38:34.732Z,66.69
2022-08-09T03:41:01.131Z,67.37
2022-08-09T03:43:32.160Z,67.69
2022-08-09T03:46:04.969Z,67.78
2022-08-09T03:48:30.789Z,67.43
2022-08-09T03:50:46.758Z,66.92
2022-08-09T03:53:13.115Z,67.34
2022-08-09T03:55:40.828Z,67.37
2022-08-09T03:58:16.198Z,67.26
2022-08-09T04:00:32.271Z,66.96
2022-08-09T04:02:58.611Z,66.74
2022-08-09T04:05:27.474Z,66.40
2022-08-09T04:07:56.592Z,67.03
2022-08-09T04:10:20.444Z,67.59
2022-08-09T04:12:44.532Z,67.68
2022-08-09T04:15:11.386Z,67.43
2022-08-09T04:17:36.979Z,67.31
2022-08-09T04:20:03.559Z,67.50
2022-08-09T04:22:29.996Z,67.25
2022-08-09T04:24:56.096Z,66.52
2022-08-09T04:27:22.566Z,65.68
2022-08-09T04:29:50.052Z,65.23
2022-08-09T04:32:15.296Z,64.15
2022-08-09T04:34:54.155Z,63.04
2022-08-09T04:37:08.083Z,62.44
2022-08-09T04:39:40.494Z,61.98
2022-08-09T04:42:02.749Z,61.38
2022-08-09T04:44:27.876Z,60.70
2022-08-09T04:46:58.539Z,60.05
2022-08-09T04:49:30.314Z,59.09
2022-08-09T04:51:47.176Z,58.40
2022-08-09T04:54:13.605Z,57.39
2022-08-09T04:56:40.041Z,56.78
2022-08-09T04:59:12.967Z,56.33
2022-08-09T05:01:32.806Z,56.43
2022-08-09T05:03:59.218Z,56.23
2022-08-09T05:06:27.524Z,55.77
2022-08-09T05:08:51.945Z,53.78
2022-08-09T05:11:18.329Z,49.03
2022-08-09T05:13:44.764Z,47.10
2022-08-09T05:16:11.161Z,45.08
2022-08-09T05:18:58.538Z,44.60
2022-08-09T05:21:09.982Z,46.12
2022-08-09T05:23:55.143Z,47.79
2022-08-09T05:25:56.844Z,46.28
2022-08-09T05:28:23.161Z,43.07
2022-08-09T05:30:51.642Z,42.22
2022-08-09T05:33:15.908Z,41.66
2022-08-09T05:35:47.046Z,40.95
2022-08-09T05:38:08.672Z,40.40
2022-08-09T05:40:35.125Z,39.84
2022-08-09T05:43:01.488Z,39.99
2022-08-09T05:45:52.493Z,39.49
2022-08-09T05:47:59.227Z,39.50
2022-08-09T05:50:31.978Z,39.89
2022-08-09T05:52:52.092Z,40.27
2022-08-09T05:55:20.357Z,41.06
2022-08-09T05:57:50.663Z,41.96
2022-08-09T06:00:06.147Z,41.79
2022-08-09T06:02:32.775Z,41.28
2022-08-09T06:04:58.935Z,40.27
2022-08-09T06:07:25.317Z,40.73
2022-08-09T06:10:01.800Z,40.17
2022-08-09T06:12:18.107Z,39.02
2022-08-09T06:14:44.569Z,39.90
2022-08-09T06:17:10.956Z,39.70
2022-08-09T06:19:37.651Z,39.11
2022-08-09T06:22:04.037Z,38.30
2022-08-09T06:24:30.593Z,37.94
2022-08-09T06:26:57.042Z,37.81
2022-08-09T06:29:23.427Z,37.80
2022-08-09T06:32:08.515Z,37.77
2022-08-09T06:34:16.217Z,37.52
2022-08-09T06:36:42.904Z,37.07
2022-08-09T06:39:11.695Z,36.87
2022-08-09T06:41:56.767Z,36.96
2022-08-09T06:44:01.920Z,37.53
2022-08-09T06:46:39.928Z,37.16
2022-08-09T06:48:58.484Z,36.19
2022-08-09T06:51:21.071Z,35.70
2022-08-09T06:53:49.953Z,35.39
2022-08-09T06:56:13.870Z,35.12
2022-08-09T07:00:46.968Z,35.99
2022-08-09T07:01:07.980Z,35.16
2022-08-09T07:03:33.036Z,34.83
2022-08-09T07:06:03.897Z,34.83
2022-08-09T07:08:25.827Z,34.40
2022-08-09T07:10:52.187Z,34.23
2022-08-09T07:13:29.300Z,34.44
2022-08-09T07:16:35.300Z,33.76
2022-08-09T07:18:11.415Z,34.67
2022-08-09T07:20:39.564Z,34.11
2022-08-09T07:23:04.171Z,33.87
2022-08-09T07:25:30.621Z,33.97
2022-08-09T07:27:57.060Z,34.57
2022-08-09T07:30:24.354Z,34.00
2022-08-09T07:32:51.558Z,33.86
2022-08-09T07:35:16.189Z,33.96
2022-08-09T07:37:43.727Z,33.13
2022-08-09T07:40:08.948Z,31.44
2022-08-09T07:42:35.599Z,32.06
2022-08-09T07:45:06.511Z,31.26
2022-08-09T07:47:28.206Z,30.55
2022-08-09T07:50:07.601Z,31.12
2022-08-09T07:52:20.955Z,31.04
2022-08-09T07:54:51.548Z,30.23
2022-08-09T07:57:14.141Z,30.34
2022-08-09T07:59:52.091Z,30.89
2022-08-09T08:02:07.027Z,30.83
2022-08-09T08:04:33.462Z,31.82
2022-08-09T08:07:00.265Z,31.45
2022-08-09T08:09:38.442Z,30.98
2022-08-09T08:12:24.072Z,30.50
2022-08-09T08:14:18.968Z,30.34
2022-08-09T08:17:00.970Z,29.88
2022-08-09T08:19:11.827Z,29.43
2022-08-09T08:21:39.715Z,29.57
2022-08-09T08:24:12.007Z,29.22
2022-08-09T08:26:54.962Z,29.43
2022-08-09T08:28:57.338Z,28.69
2022-08-09T08:31:24.590Z,28.03
2022-08-09T08:33:54.057Z,27.86
2022-08-09T08:36:28.326Z,27.27
2022-08-09T08:38:43.021Z,27.08
2022-08-09T08:41:09.432Z,25.94
2022-08-09T08:43:36.138Z,26.99
2022-08-09T08:46:10.046Z,26.99
2022-08-09T08:48:29.177Z,26.57
2022-08-09T08:50:55.124Z,26.27
2022-08-09T08:53:22.363Z,26.67
2022-08-09T08:55:48.000Z,26.48
2022-08-09T08:58:14.456Z,25.42
2022-08-09T09:00:40.821Z,24.93
2022-08-09T09:03:08.675Z,24.92
2022-08-09T09:05:59.906Z,25.56
2022-08-09T09:08:00.133Z,24.85
2022-08-09T09:10:26.715Z,24.71
2022-08-09T09:12:52.936Z,24.68
2022-08-09T09:15:28.155Z,24.91
2022-08-09T09:17:51.679Z,24.69
2022-08-09T09:20:15.252Z,25.60
2022-08-09T09:22:38.990Z,24.69
2022-08-09T09:26:01.761Z,24.37
2022-08-09T09:28:05.037Z,23.20
2022-08-09T09:30:14.063Z,21.98
2022-08-09T09:32:34.518Z,20.32
2022-08-09T09:34:50.582Z,21.63
2022-08-09T09:37:16.974Z,21.18
2022-08-09T09:39:55.631Z,20.68
2022-08-09T09:42:11.869Z,21.33
2022-08-09T09:44:36.199Z,21.85
2022-08-09T09:47:02.565Z,20.33
2022-08-09T09:49:55.948Z,19.64
2022-08-09T09:51:55.348Z,19.98
2022-08-09T09:54:21.707Z,20.44
2022-08-09T09:56:53.276Z,20.45
2022-08-09T09:59:16.169Z,19.28
2022-08-09T10:01:41.007Z,19.88
2022-08-09T10:04:09.747Z,20.58
2022-08-09T10:06:33.790Z,21.22
2022-08-09T10:09:00.296Z,21.65
2022-08-09T10:12:00.743Z,21.88
2022-08-09T10:13:53.019Z,23.08
2022-08-09T10:16:58.201Z,22.49
2022-08-09T10:18:51.411Z,21.43
2022-08-09T10:21:12.141Z,22.20
2022-08-09T10:23:38.500Z,23.08
2022-08-09T10:26:08.889Z,23.69
2022-08-09T10:28:31.254Z,23.28
2022-08-09T10:34:04.618Z,22.05
2022-08-09T10:35:50.753Z,22.92
2022-08-09T10:38:33.722Z,21.23
2022-08-09T10:40:44.799Z,20.51
2022-08-09T10:43:10.165Z,22.33
2022-08-09T10:45:49.285Z,22.28
2022-08-09T10:48:19.357Z,20.95
2022-08-09T10:50:32.816Z,21.45
2022-08-09T10:52:55.752Z,21.49
2022-08-09T10:55:22.753Z,22.11
2022-08-09T10:57:48.744Z,22.94
2022-08-09T11:00:14.881Z,23.36
2022-08-09T11:03:11.613Z,24.67
2022-08-09T11:05:07.693Z,24.82
2022-08-09T11:07:57.337Z,23.51
2022-08-09T11:10:00.453Z,22.34
2022-08-09T11:12:29.557Z,22.49
2022-08-09T11:14:53.172Z,23.39
2022-08-09T11:17:19.602Z,23.91
2022-08-09T11:20:07.834Z,24.32
2022-08-09T11:22:21.542Z,22.69
2022-08-09T11:24:38.766Z,23.49
2022-08-09T11:27:06.659Z,22.58
2022-08-09T11:30:04.511Z,21.38
2022-08-09T11:31:58.002Z,22.62
2022-08-09T11:34:24.382Z,22.80
2022-08-09T11:36:50.776Z,23.67
2022-08-09T11:39:17.186Z,24.70
2022-08-09T11:41:43.538Z,24.73
2022-08-09T11:44:09.947Z,24.79
2022-08-09T11:46:36.388Z,24.88
2022-08-09T11:49:05.243Z,24.68
2022-08-09T11:53:01.135Z,24.38
2022-08-09T11:53:58.645Z,24.45
2022-08-09T11:56:22.022Z,25.70
2022-08-09T11:58:50.351Z,25.97
2022-08-09T12:01:15.629Z,26.07
2022-08-09T12:03:57.136Z,26.03
2022-08-09T12:06:07.597Z,25.75
2022-08-09T12:08:34.083Z,26.12
2022-08-09T12:11:00.492Z,25.88
2022-08-09T12:14:08.501Z,25.78
2022-08-09T12:15:53.254Z,24.67
2022-08-09T12:18:29.563Z,24.18
2022-08-09T12:20:46.511Z,23.53
2022-08-09T12:23:12.508Z,23.29
2022-08-09T12:25:38.907Z,24.05
2022-08-09T12:28:58.634Z,24.39
2022-08-09T12:30:36.202Z,24.72
2022-08-09T12:32:58.023Z,24.78
2022-08-09T12:35:24.429Z,24.44
2022-08-09T12:37:53.737Z,23.86
2022-08-09T12:40:17.301Z,24.67
2022-08-09T12:42:43.671Z,24.78
2022-08-09T12:45:34.356Z,24.87
2022-08-09T12:47:44.290Z,24.65
2022-08-09T12:50:03.772Z,24.18
2022-08-09T12:52:42.988Z,23.64
2022-08-09T12:56:02.349Z,23.37
2022-08-09T12:57:23.571Z,23.71
2022-08-09T13:00:03.325Z,23.90
2022-08-09T13:02:16.512Z,24.39
2022-08-09T13:04:42.979Z,24.72
2022-08-09T13:07:09.510Z,23.62
2022-08-09T13:09:38.155Z,23.55
2022-08-09T13:12:02.553Z,24.10
2022-08-09T13:14:43.614Z,24.14
2022-08-09T13:16:56.521Z,23.91
2022-08-09T13:19:21.417Z,24.42
2022-08-09T13:22:35.264Z,24.14
2022-08-09T13:24:44.658Z,24.85
2022-08-09T13:26:40.633Z,24.73
2022-08-09T13:29:07.464Z,24.73
2022-08-09T13:32:20.310Z,24.27
2022-08-09T13:33:59.845Z,24.65
2022-08-09T13:36:41.280Z,24.71
2022-08-09T13:38:56.225Z,24.79
2022-08-09T13:41:57.707Z,24.81
2022-08-09T13:43:45.484Z,24.93
2022-08-09T13:47:16.375Z,25.15
2022-08-09T13:48:38.283Z,24.38
2022-08-09T13:51:04.644Z,24.54
2022-08-09T13:53:41.482Z,24.19
2022-08-09T13:55:57.818Z,23.90
2022-08-09T13:58:24.553Z,23.65
2022-08-09T14:00:55.450Z,24.02
2022-08-09T14:04:02.304Z,23.95
2022-08-09T14:05:58.993Z,23.93
2022-08-09T14:08:15.916Z,23.88
2022-08-09T14:10:49.111Z,24.12
2022-08-09T14:13:12.074Z,23.85
2022-08-09T14:16:09.350Z,24.54
2022-08-09T14:18:18.925Z,25.71
2022-08-09T14:20:29.243Z,26.71
2022-08-09T14:22:53.286Z,25.76
2022-08-09T14:25:19.645Z,25.50
2022-08-09T14:27:57.175Z,25.43
2022-08-09T14:30:36.662Z,25.39
2022-08-09T14:32:38.940Z,24.47
2022-08-09T14:35:05.185Z,24.95
2022-08-09T14:37:41.249Z,24.58
2022-08-09T14:39:58.072Z,24.88
2022-08-09T14:42:31.149Z,24.20
2022-08-09T14:44:59.270Z,24.19
2022-08-09T14:47:42.762Z,24.59
2022-08-09T14:49:49.204Z,24.52
2022-08-09T14:52:09.911Z,24.19
2022-08-09T14:54:36.343Z,23.91
2022-08-09T14:57:02.705Z,24.26
2022-08-09T14:59:29.107Z,24.65
2022-08-09T15:01:55.470Z,24.76
2022-08-09T15:04:23.459Z,24.59
2022-08-09T15:06:49.706Z,24.78
2022-08-09T15:09:14.725Z,24.93
2022-08-09T15:11:43.389Z,24.68
2022-08-09T15:14:13.408Z,24.87
2022-08-09T15:16:33.859Z,25.48
2022-08-09T15:19:05.818Z,25.86
2022-08-09T15:21:56.920Z,26.01
2022-08-09T15:24:05.679Z,26.40
2022-08-09T15:26:31.754Z,26.48
2022-08-09T15:28:45.767Z,26.61
2022-08-09T15:31:16.206Z,26.86
2022-08-09T15:34:32.933Z,27.22
2022-08-09T15:36:05.650Z,27.58
2022-08-09T15:38:31.304Z,27.91
2022-08-09T15:40:57.745Z,27.97
2022-08-09T15:43:24.841Z,28.02
2022-08-09T15:45:51.795Z,28.42
2022-08-09T15:48:28.832Z,28.91
2022-08-09T15:50:43.714Z,28.22
2022-08-09T15:54:02.091Z,27.87
2022-08-09T15:56:10.833Z,27.48
2022-08-09T15:58:02.680Z,28.02
2022-08-09T16:00:29.112Z,28.05
2022-08-09T16:02:56.193Z,28.04
2022-08-09T16:05:21.944Z,28.24
2022-08-09T16:07:49.436Z,27.77
2022-08-09T16:10:38.742Z,28.19
2022-08-09T16:12:41.466Z,27.95
2022-08-09T16:16:10.958Z,27.35
2022-08-09T16:17:33.750Z,27.45
2022-08-09T16:20:05.015Z,27.71
2022-08-09T16:22:27.477Z,28.32
2022-08-09T16:24:57.038Z,29.20
2022-08-09T16:27:19.365Z,29.46
2022-08-09T16:29:50.037Z,29.45
2022-08-09T16:32:33.109Z,29.13
2022-08-09T16:34:53.383Z,29.21
2022-08-09T16:37:04.835Z,29.34
2022-08-09T16:39:31.245Z,30.19
2022-08-09T16:42:02.784Z,30.44
2022-08-09T16:44:25.287Z,30.67
2022-08-09T16:46:55.069Z,30.70
2022-08-09T16:50:30.487Z,29.95
2022-08-09T16:51:43.246Z,29.03
2022-08-09T16:54:25.735Z,28.94
2022-08-09T16:56:36.373Z,28.07
2022-08-09T16:59:06.801Z,27.77
2022-08-09T17:01:28.958Z,27.54
2022-08-09T17:03:55.266Z,27.54
2022-08-09T17:06:31.122Z,27.67
2022-08-09T17:09:01.413Z,27.73
2022-08-09T17:11:15.243Z,27.65
2022-08-09T17:13:40.856Z,27.59
2022-08-09T17:16:07.234Z,27.62
2022-08-09T17:18:33.742Z,27.61
2022-08-09T17:21:00.098Z,27.76
2022-08-09T17:24:20.625Z,27.96
2022-08-09T17:25:53.370Z,28.28
2022-08-09T17:28:19.270Z,28.62
2022-08-09T17:30:47.831Z,28.98
2022-08-09T17:33:22.611Z,29.72
2022-08-09T17:35:40.882Z,30.12
2022-08-09T17:38:13.792Z,30.39
2022-08-09T17:40:32.689Z,30.79
2022-08-09T17:42:59.709Z,30.57
2022-08-09T17:45:27.403Z,30.70
2022-08-09T17:47:55.509Z,31.34
2022-08-09T17:50:17.088Z,31.28
2022-08-09T17:52:43.086Z,30.91
2022-08-09T17:55:09.475Z,31.44
2022-08-09T17:58:03.036Z,31.76
2022-08-09T18:00:05.562Z,32.13
2022-08-09T18:02:33.528Z,32.38
2022-08-09T18:04:55.046Z,32.79
2022-08-09T18:07:23.277Z,33.48
2022-08-09T18:10:04.938Z,33.97
2022-08-09T18:12:17.684Z,34.22
2022-08-09T18:14:53.759Z,34.47
2022-08-09T18:17:07.024Z,35.59
2022-08-09T18:20:56.929Z,35.42
2022-08-09T18:21:59.874Z,35.80
2022-08-09T18:24:27.558Z,35.86
2022-08-09T18:26:52.638Z,36.44
2022-08-09T18:30:40.109Z,36.63
2022-08-09T18:31:54.991Z,36.80
2022-08-09T18:34:11.886Z,37.72
2022-08-09T18:36:38.273Z,37.57
2022-08-09T18:39:04.751Z,37.92
2022-08-09T18:41:34.694Z,37.98
2022-08-09T18:43:57.823Z,38.10
2022-08-09T18:46:50.971Z,38.34
2022-08-09T18:48:50.595Z,38.58
2022-08-09T18:51:17.107Z,38.76
2022-08-09T18:54:00.698Z,38.86
2022-08-09T18:56:09.937Z,39.10
2022-08-09T18:58:36.318Z,39.09
2022-08-09T19:01:02.828Z,39.85
2022-08-09T19:03:29.209Z,40.00
2022-08-09T19:06:03.242Z,40.25
2022-08-09T19:08:22.236Z,40.05
2022-08-09T19:10:48.639Z,40.37
2022-08-09T19:13:22.328Z,40.57
2022-08-09T19:15:41.365Z,40.90
2022-08-09T19:18:17.108Z,41.07
2022-08-09T19:20:39.067Z,41.16
2022-08-09T19:23:00.700Z,41.35
2022-08-09T19:25:41.205Z,41.43
2022-08-09T19:27:53.460Z,41.79
2022-08-09T19:30:22.636Z,42.08
2022-08-09T19:32:46.315Z,42.16
2022-08-09T19:35:12.682Z,41.24
2022-08-09T19:37:52.810Z,42.18
2022-08-09T19:40:05.869Z,41.18
2022-08-09T19:42:32.005Z,41.25
2022-08-09T19:44:58.266Z,41.77
2022-08-09T19:47:27.024Z,42.26
2022-08-09T19:50:08.599Z,42.83
2022-08-09T19:52:18.133Z,42.36
2022-08-09T19:54:43.744Z,42.27
2022-08-09T19:57:10.125Z,42.27
2022-08-09T19:59:58.999Z,42.12
2022-08-09T20:02:05.447Z,41.95
2022-08-09T20:04:35.940Z,42.65
2022-08-09T20:06:55.670Z,42.05
2022-08-09T20:09:45.081Z,42.11
2022-08-09T20:11:51.962Z,42.33
2022-08-09T20:14:15.326Z,42.78
2022-08-09T20:16:53.283Z,43.47
2022-08-09T20:19:47.669Z,42.70
2022-08-09T20:21:54.675Z,43.49
2022-08-09T20:24:00.484Z,43.54
2022-08-09T20:26:26.844Z,42.83
2022-08-09T20:28:53.255Z,44.47
2022-08-09T20:31:19.618Z,44.20
2022-08-09T20:33:46.011Z,44.84
2022-08-09T20:36:12.444Z,44.29
2022-08-09T20:39:17.038Z,45.18
2022-08-09T20:41:05.310Z,46.31
2022-08-09T20:43:31.637Z,45.83
2022-08-09T20:46:15.476Z,46.36
2022-08-09T20:48:24.403Z,46.46
2022-08-09T20:50:55.632Z,47.37
2022-08-09T20:53:22.804Z,46.58
2022-08-09T20:55:47.292Z,46.66
2022-08-09T20:58:19.755Z,47.35
2022-08-09T21:00:36.329Z,48.47
2022-08-09T21:03:02.776Z,47.27
2022-08-09T21:05:53.626Z,47.68
2022-08-09T21:08:00.175Z,47.69
2022-08-09T21:10:22.204Z,47.76
2022-08-09T21:15:15.018Z,48.94
2022-08-09T21:18:11.158Z,48.90
2022-08-09T21:20:22.463Z,49.41
2022-08-09T21:22:38.705Z,49.40
2022-08-09T21:25:00.472Z,49.40
2022-08-09T21:28:00.384Z,49.94
2022-08-09T21:29:53.272Z,50.19
2022-08-09T21:32:19.633Z,50.02
2022-08-09T21:34:48.249Z,49.85
2022-08-09T21:37:18.342Z,49.75
2022-08-09T21:39:41.827Z,50.08
2022-08-09T21:42:10.383Z,49.71
2022-08-09T21:44:34.601Z,49.99
2022-08-09T21:46:57.928Z,49.77
2022-08-09T21:49:24.311Z,49.87
2022-08-09T21:51:51.177Z,50.02
2022-08-09T21:54:17.092Z,49.88
2022-08-09T21:56:54.379Z,49.32
2022-08-09T21:59:09.954Z,50.00
2022-08-09T22:01:59.078Z,49.95
2022-08-09T22:04:02.758Z,50.38
2022-08-09T22:06:29.118Z,50.25
2022-08-09T22:08:55.501Z,50.66
2022-08-09T22:12:06.172Z,50.60
2022-08-09T22:13:48.241Z,50.65
2022-08-09T22:16:14.882Z,51.06
2022-08-09T22:18:52.999Z,50.70
2022-08-09T22:21:09.245Z,50.49
2022-08-09T22:23:35.566Z,50.65
2022-08-09T22:26:07.323Z,50.96
2022-08-09T22:28:32.522Z,51.17
2022-08-09T22:30:53.181Z,51.24
2022-08-09T22:33:19.545Z,51.03
2022-08-09T22:35:59.867Z,51.29
2022-08-09T22:38:12.279Z,51.70
2022-08-09T22:40:38.669Z,51.61
2022-08-09T22:43:16.107Z,51.79
2022-08-09T22:48:14.950Z,52.36
2022-08-09T22:48:18.556Z,51.96
2022-08-09T22:50:24.208Z,52.79
2022-08-09T22:52:57.629Z,52.91
2022-08-09T22:55:21.917Z,52.84
2022-08-09T22:57:59.513Z,52.92
2022-08-09T23:00:09.711Z,53.16
2022-08-09T23:02:36.073Z,53.20
2022-08-09T23:05:02.531Z,53.63
2022-08-09T23:08:21.306Z,53.73
2022-08-09T23:09:55.287Z,53.88
2022-08-09T23:12:21.712Z,53.82
2022-08-09T23:14:48.162Z,53.75
2022-08-09T23:17:14.519Z,54.21
2022-08-09T23:20:07.293Z,54.11
2022-08-09T23:22:07.280Z,53.96
2022-08-09T23:24:33.645Z,54.28
2022-08-09T23:27:00.009Z,54.68
2022-08-09T23:29:26.444Z,54.80
2022-08-09T23:31:54.528Z,55.42
2022-08-09T23:34:19.177Z,55.95
2022-08-09T23:36:45.642Z,56.04
2022-08-09T23:39:12.072Z,55.94
2022-08-09T23:41:38.406Z,56.39
2022-08-09T23:44:04.838Z,56.66
2022-08-09T23:46:31.275Z,57.44
2022-08-09T23:48:57.709Z,57.92
2022-08-09T23:51:24.138Z,58.21
2022-08-09T23:53:52.540Z,58.23
2022-08-09T23:56:16.905Z,58.36
2022-08-09T23:58:43.334Z,58.45
